Aviation Digital Data Service (ADDS)

Output produced by METARs form (1150 UTC 22 January 2022)
found at http://aviationweather.gov/metar/data/
 
KFME 221135Z AUTO 35004KT 10SM CLR M09/M15 A3046 RMK AO1
KBWI 221054Z 35005KT 10SM FEW035 FEW180 FEW250 M09/M17 A3042 RMK AO2 SLP302 T10891167
KBWI 221120Z 2212/2318 36005KT P6SM FEW250 
     FM222200 VRB03KT P6SM FEW200 SCT250 
     FM231000 27003KT P6SM FEW140 FEW200 
     FM231600 28008KT P6SM SCT090 BKN140
       
KESN 221150Z 35008KT 10SM BKN033 M06/M15 A3045
KCGE 221135Z AUTO 35009G14KT 10SM OVC034 M06/M14 A3041 RMK A01
KSBY 221054Z 01013KT 6SM -SN FEW033 SCT045 OVC050 M04/M09 A3036 RMK AO2 SNB41 SLP284 P0000 T10441089 $
KSBY 221134Z 2212/2312 01013KT P6SM OVC050 
     FM221300 36011KT P6SM BKN050 
     FM221800 36007KT P6SM SCT060
       
KOXB 221118Z AUTO 35013G19KT 1 1/2SM -SN BR OVC022 M04/M06 A3035 RMK AO2 P0000 T10391056
KFDK 221147Z 00000KT 10SM CLR M12/M14 A3044
KHGR 221053Z AUTO 02003KT 10SM CLR M13/M18 A3040 RMK AO2 SLP318 T11281178 $